Aérodrome :
LOGIN :

S'inscrire | Disclaimer

   EN    FR    IT 

 










Légende :    VFR   VFR Marginal   IFR   IFR Intensif   IFR Très Intensif
Visi : 
Plafond : 
>= 8 km
>= 3000ft
5 à 8 km
1000 à 3000 ft
1500m à 5 km
500 à 1000 ft
800 à 1500m
200 à 500 ft
< 800m
< 200 ft
Symboles :   Orages  Brouillard  Fortes neiges  Fortes précipitations  Vent > 20 kt
SIGMETs :   Divers  Orages  Givrage  Turbulence  Onde Orograph.  Cendres Volcan.







- Altitude de l'aérodrome : 147 ft
- Code IATA : DUS


EDDL - Düsseldorf Int.

DERNIER METAR :
  • 151250Z 24010KT 210V270 9999 SCT024 BKN060 23/16 Q1019 NOSIG

METARs EXPIRÉS :
  • 151220Z 24008KT 200V270 9999 SCT023 BKN060 23/16 Q1019 NOSIG
  • 151150Z 23009KT 190V280 9999 SCT021 BKN060 22/16 Q1019 NOSIG
  • 151120Z 23007KT 190V280 9999 BKN020 BKN060 21/16 Q1020 NOSIG
  • 151050Z 21007KT 170V260 9999 BKN019 BKN060 21/16 Q1020 NOSIG
  • 151020Z 21009KT 170V230 9999 BKN018 BKN060 21/16 Q1020 NOSIG

TAF TAF EDDL
Valide du 15 à 12h jusqu'au 16 à 18h UTC


151100Z 1512/1618 24009KT 9999 SCT020 BKN045
BECMG 1518/1521 16006KT
BECMG 1610/1612 22008KT
BECMG 1616/1618 30005KT
Pas de NOTAMs connus pour ce terrain.



MET'MAP, la Météo Aéronautique d'un coup d'oeil ! - Copyright ORBIFLY Décembre 2007 - Disclaimer

ORBIFLY MET'MAP TEAM :

Programmation & Développement : Alexandra Zaïnal
Conception & Développement : Baudouin d'Aumeries
Co-Programmation & Développement : Marc-Olivier Méhu
Soutien technique & logistique : Manuel Goepfert

Contact : metmap@orbifly.com




SOURCES & CREDITS :

   NOAA